ENLA

Ula Platform Heliport

Norway

ENLA 110850Z AUTO 06005KT 020V110 9999NDV NCD 04/M05 Q0987 W///S4

Observed Flight Rules
Dec-11 @ 08:50 UTC (40 minutes ago)
Wind Clouds
60° at 5 knots
  • Clear skies
Temperatures Readings
Current 4°C / 39°F
Dewpoint -5°C / 23°F
Humidity 52%
Altimeter 29.14" Hg
Pressure 987 hPa
Elevation 4
Observed Flight Rules
Dec-11 @ 08:50 UTC
(40 minutes ago)
Wind
60° at 5 knots
Clouds
  • Clear skies
Temperature Dewpoint
4°C / 39°F -5°C / 23°F
Humidity Altimeter Pressure
52% 29.14" Hg 987 hPa